Time;durP1;ratioP1;P1;durP2;ratioP2;P2;SDS_P1;SDS_P2;PMS_P1;PMS_P2;Temp;Humidity;BMP_temperature;BMP_pressure;BME280_temperature;BME280_humidity;BME280_pressure;Samples;Min_cycle;Max_cycle;Signal;HPM_P1;HPM_P2
2023/06/25 00:00:39;;;;;;;14.00;10.40;;;;;;;13.95;100.00;99474.74;272442;1279;23199;-89
2023/06/25 00:08:24;;;;;;;15.60;10.40;;;;;;;13.99;100.00;99469.58;273902;1269;22234;-89
2023/06/25 00:16:14;;;;;;;16.10;11.70;;;;;;;14.02;100.00;99471.48;272109;1278;22192;-89
2023/06/25 00:23:05;;;;;;;17.00;11.80;;;;;;;13.98;100.00;99469.24;271150;1281;22621;-88
2023/06/25 00:45:33;;;;;;;14.70;10.60;;;;;;;13.86;100.00;99461.86;268094;1281;22567;-87
2023/06/25 00:53:08;;;;;;;17.60;11.50;;;;;;;13.78;100.00;99458.77;268750;1278;22939;-87
2023/06/25 01:07:36;;;;;;;13.60;10.20;;;;;;;13.59;100.00;99453.55;269710;1275;24440;-87
2023/06/25 01:22:18;;;;;;;14.70;10.90;;;;;;;13.46;100.00;99447.02;268931;1281;22567;-88
2023/06/25 01:28:40;;;;;;;15.10;10.10;;;;;;;13.36;100.00;99436.66;268984;1278;22541;-87
2023/06/25 01:35:56;;;;;;;17.00;10.10;;;;;;;13.32;100.00;99428.68;268304;1273;22344;-88
2023/06/25 01:43:30;;;;;;;14.40;9.70;;;;;;;13.29;100.00;99425.14;271111;1276;22239;-88
2023/06/25 01:50:08;;;;;;;10.90;9.20;;;;;;;13.25;100.00;99423.54;272966;1276;22185;-88
2023/06/25 02:04:46;;;;;;;10.80;9.10;;;;;;;13.18;100.00;99419.64;270630;1270;22564;-87
2023/06/25 02:11:46;;;;;;;10.50;8.50;;;;;;;13.13;100.00;99409.06;271476;1269;22319;-88
2023/06/25 02:27:33;;;;;;;12.70;9.80;;;;;;;13.01;100.00;99407.79;271523;1276;22533;-89
2023/06/25 02:34:37;;;;;;;11.90;8.80;;;;;;;12.95;100.00;99405.05;271069;1282;23618;-88
2023/06/25 02:41:47;;;;;;;;;;;;;;;;;;;;;
2023/06/25 02:49:26;;;;;;;13.20;9.10;;;;;;;12.87;100.00;99412.91;272139;1280;23316;-88
2023/06/25 02:57:32;;;;;;;10.40;8.10;;;;;;;12.84;100.00;99412.11;271170;1287;22250;-90
2023/06/25 03:04:48;;;;;;;11.40;8.80;;;;;;;12.83;100.00;99409.58;270264;1276;22574;-88
2023/06/25 03:11:54;;;;;;;10.60;8.60;;;;;;;12.77;100.00;99407.50;270768;1275;22227;-88
2023/06/25 03:18:58;;;;;;;13.50;9.20;;;;;;;12.75;100.00;99409.67;270424;1276;25439;-88
2023/06/25 03:26:49;;;;;;;14.30;8.80;;;;;;;12.80;100.00;99415.69;272124;1279;23058;-88
2023/06/25 03:34:01;;;;;;;9.60;8.10;;;;;;;12.87;100.00;99411.82;272060;1282;23002;-89
2023/06/25 03:41:11;;;;;;;10.80;8.40;;;;;;;12.92;100.00;99411.15;272356;1275;22510;-88
2023/06/25 03:48:09;;;;;;;;;;;;;;;12.99;100.00;99406.36;272729;1273;22533;-89
2023/06/25 04:02:57;;;;;;;10.40;8.30;;;;;;;13.17;100.00;99413.81;272108;1273;22238;-89
2023/06/25 04:26:25;;;;;;;11.50;9.00;;;;;;;13.66;100.00;99411.60;267993;1276;5378849;-88
2023/06/25 04:34:18;;;;;;;11.00;8.60;;;;;;;13.84;100.00;99409.42;270862;1283;22250;-89
2023/06/25 04:49:48;;;;;;;11.20;8.30;;;;;;;14.10;100.00;99402.60;268278;1271;22553;-89
2023/06/25 04:56:55;;;;;;;12.70;9.20;;;;;;;14.19;100.00;99397.36;268437;1290;22343;-88
2023/06/25 05:04:07;;;;;;;10.00;8.50;;;;;;;14.28;100.00;99394.27;267083;1290;22556;-89
2023/06/25 05:11:49;;;;;;;14.30;9.90;;;;;;;14.39;100.00;99392.17;268923;1275;23025;-89
2023/06/25 05:19:35;;;;;;;13.50;9.90;;;;;;;14.54;100.00;99388.27;269105;1276;22555;-89
2023/06/25 05:26:51;;;;;;;15.40;12.00;;;;;;;14.73;100.00;99384.27;269122;1273;25543;-89
2023/06/25 05:42:03;;;;;;;24.00;13.80;;;;;;;15.20;100.00;99384.26;270518;1271;22577;-90
2023/06/25 05:48:58;;;;;;;20.40;13.10;;;;;;;15.42;100.00;99385.27;270030;1267;22222;-90
2023/06/25 05:55:24;;;;;;;19.10;13.50;;;;;;;15.60;100.00;99376.55;269452;1278;23119;-89
2023/06/25 06:02:57;;;;;;;18.30;13.90;;;;;;;15.67;100.00;99370.08;269985;1273;22234;-90
2023/06/25 06:10:01;;;;;;;17.10;13.30;;;;;;;15.80;100.00;99360.87;271252;1272;22542;-89
2023/06/25 06:16:39;;;;;;;21.00;14.00;;;;;;;15.93;100.00;99363.50;271738;1276;22566;-89
2023/06/25 06:23:26;;;;;;;20.10;14.80;;;;;;;16.09;100.00;99357.50;271370;1273;25322;-90
2023/06/25 06:30:55;;;;;;;23.60;15.20;;;;;;;16.34;100.00;99353.89;272155;1267;22214;-89
2023/06/25 06:45:44;;;;;;;19.80;14.70;;;;;;;16.61;100.00;99355.79;271424;1290;22249;-89
2023/06/25 06:52:55;;;;;;;18.70;14.30;;;;;;;16.81;100.00;99355.15;272495;1281;22279;-91
2023/06/25 06:59:55;;;;;;;20.90;12.80;;;;;;;17.31;100.00;99350.97;270215;1275;22590;-90
2023/06/25 07:07:16;;;;;;;15.30;11.30;;;;;;;17.97;100.00;99348.16;271072;1278;22221;-89
2023/06/25 07:14:47;;;;;;;15.00;10.70;;;;;;;18.80;100.00;99341.24;271232;1276;22203;-89
2023/06/25 07:23:02;;;;;;;14.70;10.00;;;;;;;19.61;100.00;99342.02;270713;1277;23453;-88
2023/06/25 07:30:16;;;;;;;15.50;10.40;;;;;;;20.43;100.00;99335.04;270643;1276;22332;-90
2023/06/25 07:44:43;;;;;;;12.50;9.30;;;;;;;21.25;100.00;99338.84;269995;1273;22666;-91
2023/06/25 07:51:54;;;;;;;13.00;10.20;;;;;;;21.58;100.00;99334.03;271083;1274;22297;-90
2023/06/25 07:57:56;;;;;;;12.00;9.60;;;;;;;21.84;100.00;99335.48;270899;1273;24247;-89
2023/06/25 08:04:22;;;;;;;12.60;9.70;;;;;;;21.92;100.00;99331.98;270123;1271;22556;-90
2023/06/25 08:26:02;;;;;;;12.90;11.10;;;;;;;22.34;100.00;99313.95;274031;1275;22350;-89
2023/06/25 08:32:04;;;;;;;13.00;9.30;;;;;;;22.55;100.00;99311.48;272225;1260;22617;-89
2023/06/25 08:38:08;;;;;;;13.20;10.00;;;;;;;22.72;100.00;99308.88;273437;1267;22421;-90
2023/06/25 08:44:30;;;;;;;12.00;9.30;;;;;;;22.83;100.00;99306.89;273553;1274;22531;-90
2023/06/25 08:50:35;;;;;;;12.70;8.70;;;;;;;22.85;100.00;99304.13;273635;1270;22611;-88
2023/06/25 08:56:37;;;;;;;13.60;10.40;;;;;;;22.80;100.00;99302.84;272710;1269;24253;-86
2023/06/25 09:02:40;;;;;;;10.90;9.10;;;;;;;22.79;99.99;99297.22;272388;1260;22382;-87
2023/06/25 09:08:43;;;;;;;11.00;8.90;;;;;;;22.90;99.59;99291.16;272365;1269;23352;-86
2023/06/25 09:14:58;;;;;;;11.20;7.90;;;;;;;23.07;98.50;99288.13;271809;1269;22242;-88
2023/06/25 09:21:37;;;;;;;8.60;7.50;;;;;;;23.13;96.51;99284.80;273255;1268;22602;-87
2023/06/25 09:27:38;;;;;;;10.40;7.30;;;;;;;23.29;94.04;99284.59;272317;1267;22527;-88
2023/06/25 09:33:41;;;;;;;11.70;8.50;;;;;;;23.52;93.08;99278.41;271591;1267;22559;-88
2023/06/25 09:40:27;;;;;;;9.60;6.90;;;;;;;23.90;92.03;99269.08;271107;1267;22571;-87
2023/06/25 09:46:31;;;;;;;12.90;7.50;;;;;;;23.84;90.32;99260.11;271514;1253;22560;-89
2023/06/25 09:52:34;;;;;;;14.80;9.10;;;;;;;23.80;90.35;99264.73;271315;1268;22598;-87
2023/06/25 09:58:37;;;;;;;12.70;7.50;;;;;;;24.20;90.00;99253.98;273729;1273;22214;-85
2023/06/25 10:04:43;;;;;;;11.90;7.90;;;;;;;24.82;87.43;99246.02;273501;1270;22199;-87
2023/06/25 10:11:15;;;;;;;9.20;7.30;;;;;;;25.00;86.05;99238.52;272247;1267;23894;-88
2023/06/25 10:18:04;;;;;;;10.10;7.80;;;;;;;25.14;83.15;99235.19;271621;1267;22562;-87
2023/06/25 10:24:18;;;;;;;9.30;7.60;;;;;;;24.77;81.58;99235.52;271630;1267;22557;-89
2023/06/25 10:30:46;;;;;;;10.40;7.40;;;;;;;24.17;81.25;99238.77;272520;1259;23232;-87
2023/06/25 10:36:49;;;;;;;9.20;7.40;;;;;;;23.61;79.98;99239.26;272347;1265;22436;-87
2023/06/25 10:42:51;;;;;;;9.90;7.40;;;;;;;23.47;80.70;99233.42;273804;1267;23140;-86
2023/06/25 10:49:17;;;;;;;10.20;7.30;;;;;;;23.47;80.91;99233.64;274154;1261;22434;-88
2023/06/25 10:55:25;;;;;;;12.80;7.80;;;;;;;23.33;80.78;99227.55;273696;1268;22331;-87
2023/06/25 11:01:34;;;;;;;9.10;7.00;;;;;;;23.26;80.50;99222.36;273982;1267;22240;-88
2023/06/25 11:07:42;;;;;;;10.30;7.50;;;;;;;23.25;80.19;99218.81;273974;1272;23257;-87
2023/06/25 11:14:27;;;;;;;10.10;6.40;;;;;;;23.24;78.91;99218.05;273147;1269;23332;-88
2023/06/25 11:21:05;;;;;;;8.20;6.40;;;;;;;23.46;77.90;99215.38;272434;1272;22226;-86
2023/06/25 11:27:07;;;;;;;8.00;7.00;;;;;;;24.36;74.36;99203.77;272793;1273;22341;-86
2023/06/25 11:33:10;;;;;;;9.80;7.80;;;;;;;24.90;73.44;99200.88;270395;1272;22540;-87
2023/06/25 11:39:38;;;;;;;10.40;5.70;;;;;;;25.60;73.37;99196.49;272642;1272;23579;-88
2023/06/25 11:45:43;;;;;;;6.50;5.40;;;;;;;26.36;71.04;99193.56;272633;1272;22261;-86
2023/06/25 11:51:45;;;;;;;6.60;5.10;;;;;;;26.42;69.45;99190.70;272262;1269;22228;-86
2023/06/25 11:57:50;;;;;;;5.80;5.00;;;;;;;25.89;68.83;99187.20;272528;1269;23461;-86
2023/06/25 12:04:01;;;;;;;7.30;5.20;;;;;;;25.16;68.25;99177.69;273762;1259;22388;-87
2023/06/25 12:10:33;;;;;;;8.70;5.50;;;;;;;24.77;67.40;99173.80;273765;1269;22217;-88
2023/06/25 12:16:42;;;;;;;7.60;5.60;;;;;;;24.85;68.20;99160.94;272204;1267;22522;-87
2023/06/25 12:22:44;;;;;;;7.30;4.70;;;;;;;25.05;66.69;99155.70;270820;1269;22514;-87
2023/06/25 12:29:07;;;;;;;8.80;6.10;;;;;;;25.14;66.02;99153.08;270819;1269;22564;-86
2023/06/25 12:35:09;;;;;;;7.70;5.40;;;;;;;25.31;66.69;99147.40;272068;1268;22527;-87
2023/06/25 12:41:31;;;;;;;5.40;4.90;;;;;;;25.32;66.57;99146.39;272300;1266;22192;-87
2023/06/25 12:47:46;;;;;;;;;;;;;;;25.24;65.22;99138.92;272923;1269;22484;-86
2023/06/25 12:53:47;;;;;;;6.10;5.00;;;;;;;24.97;64.18;99124.32;271716;1269;25303;-87
2023/06/25 13:00:17;;;;;;;;;;;;;;;24.54;64.65;99122.35;270091;1268;22525;-87
2023/06/25 13:06:40;;;;;;;5.20;4.70;;;;;;;24.34;64.74;99119.27;270257;1257;22618;-87
2023/06/25 13:13:02;;;;;;;7.00;4.80;;;;;;;24.38;64.34;99113.13;269856;1269;23222;-87
2023/06/25 13:19:17;;;;;;;5.70;4.60;;;;;;;24.42;63.04;99103.30;270593;1267;25388;-87
2023/06/25 13:25:25;;;;;;;7.10;4.90;;;;;;;24.54;63.72;99100.98;270210;1269;22553;-87
2023/06/25 13:31:27;;;;;;;10.20;5.50;;;;;;;24.75;63.20;99100.75;270025;1259;22562;-87
2023/06/25 13:37:29;;;;;;;8.40;4.80;;;;;;;24.89;62.21;99102.98;270946;1267;22527;-87
2023/06/25 13:43:55;;;;;;;6.30;5.00;;;;;;;25.00;61.63;99101.54;270773;1267;22562;-88
2023/06/25 13:49:56;;;;;;;5.70;4.80;;;;;;;25.03;60.70;99097.08;271846;1269;22483;-86
2023/06/25 13:55:57;;;;;;;6.20;5.00;;;;;;;24.98;59.06;99092.27;273664;1267;22758;-86
2023/06/25 14:02:01;;;;;;;6.50;4.80;;;;;;;24.91;58.73;99080.68;266369;1269;10001931;-86
2023/06/25 14:08:22;;;;;;;7.00;5.10;;;;;;;24.95;59.51;99076.00;273414;1259;22351;-88
2023/06/25 14:14:24;;;;;;;6.70;5.30;;;;;;;25.01;60.03;99068.37;272523;1265;22210;-86
2023/06/25 14:20:25;;;;;;;5.60;5.00;;;;;;;25.06;59.97;99063.96;273920;1270;23407;-86
2023/06/25 14:26:26;;;;;;;7.30;4.70;;;;;;;25.08;60.16;99068.85;273818;1267;22481;-86
2023/06/25 14:32:54;;;;;;;7.00;5.20;;;;;;;24.95;59.76;99071.52;274040;1270;22475;-88
2023/06/25 14:39:50;;;;;;;5.20;4.70;;;;;;;24.67;60.08;99071.98;274025;1267;22345;-89
2023/06/25 14:47:03;;;;;;;6.60;4.80;;;;;;;24.34;60.50;99079.48;273984;1269;22397;-87
2023/06/25 14:53:04;;;;;;;6.60;5.50;;;;;;;24.15;60.43;99077.61;273820;1259;22323;-87
2023/06/25 14:59:14;;;;;;;7.90;5.20;;;;;;;24.02;60.55;99072.16;273895;1262;23611;-89
2023/06/25 15:05:29;;;;;;;8.00;5.60;;;;;;;23.92;60.15;99071.67;274074;1269;22223;-87
2023/06/25 15:11:35;;;;;;;7.50;5.70;;;;;;;23.89;60.49;99070.63;273800;1262;22321;-88
2023/06/25 15:17:35;;;;;;;6.50;5.50;;;;;;;23.79;60.49;99071.00;273717;1267;22194;-86
2023/06/25 15:23:37;;;;;;;6.60;4.90;;;;;;;23.72;60.21;99068.50;273768;1267;22500;-86
2023/06/25 15:29:40;;;;;;;7.10;5.40;;;;;;;23.70;60.82;99058.05;273865;1253;23099;-88
2023/06/25 15:35:57;;;;;;;5.80;4.90;;;;;;;23.69;61.23;99056.98;273795;1263;22236;-87
2023/06/25 15:42:00;;;;;;;6.80;5.20;;;;;;;23.65;61.56;99050.90;273820;1269;22236;-87
2023/06/25 15:48:01;;;;;;;6.30;5.40;;;;;;;23.62;61.20;99051.18;273782;1269;23549;-86
2023/06/25 15:54:37;;;;;;;6.60;5.10;;;;;;;23.60;61.29;99045.48;273915;1268;22310;-87
2023/06/25 16:00:38;;;;;;;5.70;4.60;;;;;;;23.60;61.39;99041.46;273225;1257;23274;-88
2023/06/25 16:06:39;;;;;;;5.50;4.90;;;;;;;23.59;61.44;99040.13;271954;1268;23040;-87
2023/06/25 16:12:41;;;;;;;5.90;5.10;;;;;;;23.62;60.74;99032.20;273875;1267;22846;-87
2023/06/25 16:18:42;;;;;;;6.10;5.30;;;;;;;23.66;61.07;99029.64;273837;1270;23014;-88
2023/06/25 16:24:43;;;;;;;5.50;4.90;;;;;;;23.69;61.24;99027.89;271272;1269;3301018;-87
2023/06/25 16:30:56;;;;;;;8.00;5.10;;;;;;;23.75;60.99;99027.20;273842;1256;23134;-87
2023/06/25 16:50:18;;;;;;;7.00;5.60;;;;;;;23.31;60.72;99031.54;236309;1281;10002090;-92
2023/06/25 16:56:21;;;;;;;6.80;5.10;;;;;;;23.10;60.46;99030.60;266742;1282;22633;-92
2023/06/25 17:02:29;;;;;;;5.30;4.80;;;;;;;22.99;60.56;99030.44;266676;1281;22533;-94
2023/06/25 17:08:31;;;;;;;5.80;4.60;;;;;;;22.97;60.26;99035.95;267222;1281;22764;-94
2023/06/25 17:14:34;;;;;;;7.50;4.50;;;;;;;23.01;59.20;99039.77;267282;1280;24100;-91
2023/06/25 17:20:41;;;;;;;5.20;4.10;;;;;;;23.05;59.06;99041.52;267570;1281;25096;-90
2023/06/25 17:26:43;;;;;;;5.40;4.00;;;;;;;23.11;58.36;99046.39;266996;1281;22598;-91
2023/06/25 17:32:45;;;;;;;6.00;3.70;;;;;;;23.08;57.83;99049.71;267248;1281;22567;-96
2023/06/25 17:38:48;;;;;;;5.60;4.10;;;;;;;22.99;57.29;99050.88;267234;1281;23322;-93
2023/06/25 17:44:49;;;;;;;6.10;4.00;;;;;;;22.92;57.30;99052.98;267274;1281;24282;-91
2023/06/25 17:50:51;;;;;;;4.70;3.80;;;;;;;22.81;57.38;99056.27;267398;1281;22493;-92
2023/06/25 17:56:54;;;;;;;4.40;3.70;;;;;;;22.63;57.70;99058.30;267388;1281;23677;-90
2023/06/25 18:02:57;;;;;;;4.50;3.70;;;;;;;22.44;57.83;99063.95;267326;1281;22571;-92
2023/06/25 18:08:59;;;;;;;5.90;3.80;;;;;;;22.31;58.20;99065.31;267409;1281;22556;-92
2023/06/25 18:15:00;;;;;;;4.90;3.40;;;;;;;22.17;58.44;99070.10;267381;1280;22580;-92
2023/06/25 18:21:02;;;;;;;6.10;3.80;;;;;;;22.04;58.71;99071.50;267073;1281;22496;-92
2023/06/25 18:27:05;;;;;;;9.20;4.40;;;;;;;21.93;58.78;99067.05;267145;1281;22544;-90
2023/06/25 18:33:07;;;;;;;5.90;4.40;;;;;;;21.79;60.08;99069.56;266843;1282;25471;-91
2023/06/25 18:39:09;;;;;;;5.50;4.50;;;;;;;21.58;60.87;99076.27;266951;1281;24337;-92
2023/06/25 18:45:12;;;;;;;5.20;4.00;;;;;;;21.27;61.29;99083.52;266996;1283;25305;-91
2023/06/25 18:51:13;;;;;;;5.60;4.20;;;;;;;21.06;61.96;99082.31;267022;1281;25472;-91
2023/06/25 18:57:15;;;;;;;5.80;4.20;;;;;;;20.92;62.68;99088.68;267144;1282;23231;-91
2023/06/25 19:03:17;;;;;;;6.70;3.90;;;;;;;20.82;63.39;99090.95;266615;1281;24293;-91
2023/06/25 19:09:19;;;;;;;6.20;4.50;;;;;;;20.69;64.58;99101.11;266487;1281;23834;-90
2023/06/25 19:15:22;;;;;;;8.80;5.60;;;;;;;20.50;65.51;99108.55;267078;1281;24377;-91
2023/06/25 19:21:24;;;;;;;7.50;5.20;;;;;;;20.35;66.08;99109.73;266804;1281;22567;-91
2023/06/25 19:27:26;;;;;;;8.60;5.30;;;;;;;20.28;66.87;99108.98;266696;1282;22582;-90
2023/06/25 19:33:31;;;;;;;7.60;4.80;;;;;;;20.23;67.44;99112.12;266515;1281;22527;-91
2023/06/25 19:39:34;;;;;;;7.70;4.50;;;;;;;20.21;68.05;99111.30;266410;1283;22606;-92
2023/06/25 19:46:32;;;;;;;7.30;5.00;;;;;;;20.18;69.42;99115.66;266354;1282;22641;-91
2023/06/25 19:52:34;;;;;;;8.20;5.30;;;;;;;20.07;69.37;99120.49;266864;1283;22615;-92
2023/06/25 19:58:38;;;;;;;6.20;4.70;;;;;;;19.98;69.71;99119.95;266626;1282;22526;-92
2023/06/25 20:04:40;;;;;;;6.00;4.70;;;;;;;19.92;70.41;99120.65;266533;1282;22609;-91
2023/06/25 20:10:43;;;;;;;9.20;5.20;;;;;;;19.89;71.00;99117.38;266637;1281;23957;-91
2023/06/25 20:16:46;;;;;;;8.20;5.70;;;;;;;19.84;72.28;99118.70;266553;1282;23361;-91
2023/06/25 20:22:48;;;;;;;7.50;5.20;;;;;;;19.75;72.96;99115.74;266781;1281;23288;-90
2023/06/25 20:28:50;;;;;;;8.70;5.60;;;;;;;19.63;73.98;99115.00;266561;1282;25266;-91
2023/06/25 20:35:17;;;;;;;6.70;4.90;;;;;;;19.60;75.40;99116.91;266787;1282;22540;-89
2023/06/25 20:41:18;;;;;;;10.00;5.30;;;;;;;19.49;75.67;99122.30;267230;1283;25335;-90
2023/06/25 20:47:20;;;;;;;8.10;5.90;;;;;;;19.36;75.57;99122.69;267173;1283;22592;-91
2023/06/25 20:53:22;;;;;;;12.70;5.50;;;;;;;19.20;74.95;99120.86;266755;1282;22580;-94
2023/06/25 20:59:24;;;;;;;8.00;5.40;;;;;;;19.18;76.53;99121.30;266533;1283;25452;-95
2023/06/25 21:05:36;;;;;;;8.00;4.70;;;;;;;19.16;76.60;99119.69;266348;1284;23258;-90
2023/06/25 21:11:38;;;;;;;6.70;4.90;;;;;;;19.10;78.12;99125.70;266594;1282;22602;-90
2023/06/25 21:17:41;;;;;;;7.10;4.70;;;;;;;19.01;79.59;99127.84;266657;1283;24056;-91
2023/06/25 21:23:42;;;;;;;7.10;5.20;;;;;;;18.92;79.64;99128.43;266834;1273;22585;-90
2023/06/25 21:29:53;;;;;;;8.10;5.60;;;;;;;18.81;79.12;99127.69;266638;1283;22594;-91
2023/06/25 21:36:09;;;;;;;6.70;4.90;;;;;;;18.74;79.71;99135.05;266727;1284;22576;-91
2023/06/25 21:42:15;;;;;;;8.00;5.30;;;;;;;18.59;80.38;99137.71;266253;1282;24364;-92
2023/06/25 21:48:18;;;;;;;11.70;5.80;;;;;;;18.48;80.82;99138.39;266309;1285;22575;-91
2023/06/25 21:54:20;;;;;;;7.90;5.20;;;;;;;18.45;81.80;99137.66;266442;1282;25298;-91
2023/06/25 22:00:22;;;;;;;8.30;5.20;;;;;;;18.44;83.05;99137.74;266096;1284;25334;-91
2023/06/25 22:06:24;;;;;;;11.20;5.70;;;;;;;18.38;83.46;99138.09;266170;1282;22572;-93
2023/06/25 22:12:25;;;;;;;7.70;5.60;;;;;;;18.26;84.42;99139.48;266245;1281;22575;-91
2023/06/25 22:18:27;;;;;;;7.20;5.40;;;;;;;18.15;84.34;99132.39;266461;1282;24805;-90
2023/06/25 22:24:30;;;;;;;11.70;4.90;;;;;;;18.12;85.15;99128.16;266566;1282;23638;-90
2023/06/25 22:30:31;;;;;;;9.60;4.70;;;;;;;18.09;87.02;99123.45;266560;1283;23266;-92
2023/06/25 22:36:33;;;;;;;9.40;5.10;;;;;;;17.97;87.62;99119.14;266730;1283;22614;-94
2023/06/25 22:42:34;;;;;;;11.30;6.00;;;;;;;17.83;87.12;99115.81;266700;1281;22496;-91
2023/06/25 22:48:42;;;;;;;10.10;4.90;;;;;;;17.67;87.18;99117.98;266364;1283;24600;-90
2023/06/25 22:55:09;;;;;;;9.00;5.00;;;;;;;17.51;88.17;99118.45;266406;1281;25567;-90
2023/06/25 23:01:13;;;;;;;10.40;5.50;;;;;;;17.38;88.60;99114.59;266323;1283;22735;-91
2023/06/25 23:08:05;;;;;;;11.20;4.70;;;;;;;17.22;88.83;99111.73;266276;1283;22600;-92
2023/06/25 23:14:09;;;;;;;10.10;5.30;;;;;;;16.94;88.72;99111.69;266325;1283;24249;-90
2023/06/25 23:20:17;;;;;;;9.50;5.80;;;;;;;16.69;88.93;99107.10;266503;1282;24266;-91
2023/06/25 23:27:13;;;;;;;14.70;6.10;;;;;;;16.55;89.77;99105.30;266425;1281;22544;-91
2023/06/25 23:33:20;;;;;;;9.20;5.60;;;;;;;16.34;90.78;99103.27;266362;1282;22602;-93
2023/06/25 23:39:28;;;;;;;9.40;5.40;;;;;;;16.18;91.55;99096.10;266253;1281;22670;-91
2023/06/25 23:45:57;;;;;;;13.20;5.30;;;;;;;16.10;91.92;99089.78;266656;1282;22639;-90
2023/06/25 23:51:59;;;;;;;9.10;5.20;;;;;;;16.02;92.87;99083.06;266370;1282;22768;-91
2023/06/25 23:58:26;;;;;;;13.80;5.70;;;;;;;15.97;93.35;99085.02;266306;1278;22648;-90
